sensor_id;sensor_type;location;lat;lon;timestamp;temperature;humidity
2929;DHT22;1474;51.460;7.150;2023-11-21T00:01:54;17.20;65.70
2929;DHT22;1474;51.460;7.150;2023-11-21T00:04:20;17.20;65.70
2929;DHT22;1474;51.460;7.150;2023-11-21T00:06:46;17.20;65.70
2929;DHT22;1474;51.460;7.150;2023-11-21T00:09:15;17.20;65.70
2929;DHT22;1474;51.460;7.150;2023-11-21T00:11:43;17.20;65.60
2929;DHT22;1474;51.460;7.150;2023-11-21T00:14:10;17.20;65.70
2929;DHT22;1474;51.460;7.150;2023-11-21T00:16:37;17.10;65.60
2929;DHT22;1474;51.460;7.150;2023-11-21T00:19:02;17.20;65.70
2929;DHT22;1474;51.460;7.150;2023-11-21T00:21:28;17.20;66.20
2929;DHT22;1474;51.460;7.150;2023-11-21T00:23:54;17.20;65.60
2929;DHT22;1474;51.460;7.150;2023-11-21T00:26:19;17.20;65.60
2929;DHT22;1474;51.460;7.150;2023-11-21T00:28:45;17.10;65.60
2929;DHT22;1474;51.460;7.150;2023-11-21T00:31:11;17.10;65.60
2929;DHT22;1474;51.460;7.150;2023-11-21T00:33:37;17.20;65.60
2929;DHT22;1474;51.460;7.150;2023-11-21T00:36:03;17.20;65.60
2929;DHT22;1474;51.460;7.150;2023-11-21T00:38:28;17.10;65.60
2929;DHT22;1474;51.460;7.150;2023-11-21T00:40:55;17.10;65.60
2929;DHT22;1474;51.460;7.150;2023-11-21T00:43:24;17.10;65.60
2929;DHT22;1474;51.460;7.150;2023-11-21T00:45:50;17.10;65.50
2929;DHT22;1474;51.460;7.150;2023-11-21T00:48:16;17.10;65.60
2929;DHT22;1474;51.460;7.150;2023-11-21T00:50:43;17.20;65.70
2929;DHT22;1474;51.460;7.150;2023-11-21T00:53:09;17.20;65.60
2929;DHT22;1474;51.460;7.150;2023-11-21T00:55:36;17.20;65.60
2929;DHT22;1474;51.460;7.150;2023-11-21T00:58:05;17.10;65.50
2929;DHT22;1474;51.460;7.150;2023-11-21T01:00:33;17.10;65.50
2929;DHT22;1474;51.460;7.150;2023-11-21T01:02:59;17.10;65.50
2929;DHT22;1474;51.460;7.150;2023-11-21T01:05:25;17.20;65.60
2929;DHT22;1474;51.460;7.150;2023-11-21T01:07:52;17.10;65.60
2929;DHT22;1474;51.460;7.150;2023-11-21T01:10:18;17.10;65.60
2929;DHT22;1474;51.460;7.150;2023-11-21T01:12:44;17.10;65.50
2929;DHT22;1474;51.460;7.150;2023-11-21T01:15:09;17.20;66.20
2929;DHT22;1474;51.460;7.150;2023-11-21T01:17:37;17.20;66.10
2929;DHT22;1474;51.460;7.150;2023-11-21T01:20:04;17.10;65.50
2929;DHT22;1474;51.460;7.150;2023-11-21T01:22:36;17.10;65.50
2929;DHT22;1474;51.460;7.150;2023-11-21T01:25:02;17.20;65.60
2929;DHT22;1474;51.460;7.150;2023-11-21T01:27:30;17.10;65.50
2929;DHT22;1474;51.460;7.150;2023-11-21T01:29:55;17.20;65.60
2929;DHT22;1474;51.460;7.150;2023-11-21T01:32:21;17.10;65.50
2929;DHT22;1474;51.460;7.150;2023-11-21T01:34:49;17.10;65.50
2929;DHT22;1474;51.460;7.150;2023-11-21T01:37:16;17.10;65.50
2929;DHT22;1474;51.460;7.150;2023-11-21T01:39:43;17.10;65.50
2929;DHT22;1474;51.460;7.150;2023-11-21T01:42:09;17.10;65.50
2929;DHT22;1474;51.460;7.150;2023-11-21T01:44:38;17.10;65.50
2929;DHT22;1474;51.460;7.150;2023-11-21T01:47:05;17.10;65.50
2929;DHT22;1474;51.460;7.150;2023-11-21T01:49:35;17.10;65.50
2929;DHT22;1474;51.460;7.150;2023-11-21T01:52:02;17.10;65.50
2929;DHT22;1474;51.460;7.150;2023-11-21T01:54:29;17.10;65.50
2929;DHT22;1474;51.460;7.150;2023-11-21T01:56:58;17.10;65.50
2929;DHT22;1474;51.460;7.150;2023-11-21T01:59:36;17.10;65.50
2929;DHT22;1474;51.460;7.150;2023-11-21T02:02:06;17.20;65.60
2929;DHT22;1474;51.460;7.150;2023-11-21T02:04:33;17.10;65.50
2929;DHT22;1474;51.460;7.150;2023-11-21T02:07:00;17.10;65.50
2929;DHT22;1474;51.460;7.150;2023-11-21T02:09:29;17.10;65.50
2929;DHT22;1474;51.460;7.150;2023-11-21T02:11:56;17.10;65.50
2929;DHT22;1474;51.460;7.150;2023-11-21T02:14:27;17.10;65.50
2929;DHT22;1474;51.460;7.150;2023-11-21T02:16:54;17.10;65.50
2929;DHT22;1474;51.460;7.150;2023-11-21T02:19:21;17.10;65.50
2929;DHT22;1474;51.460;7.150;2023-11-21T02:21:56;17.10;66.10
2929;DHT22;1474;51.460;7.150;2023-11-21T02:24:32;17.10;65.50
2929;DHT22;1474;51.460;7.150;2023-11-21T02:26:58;17.10;65.50
2929;DHT22;1474;51.460;7.150;2023-11-21T02:29:24;17.10;65.50
2929;DHT22;1474;51.460;7.150;2023-11-21T02:31:55;17.10;65.50
2929;DHT22;1474;51.460;7.150;2023-11-21T02:34:23;17.10;65.50
2929;DHT22;1474;51.460;7.150;2023-11-21T02:36:50;17.10;65.50
2929;DHT22;1474;51.460;7.150;2023-11-21T02:39:16;17.10;65.50
2929;DHT22;1474;51.460;7.150;2023-11-21T02:41:44;17.10;65.50
2929;DHT22;1474;51.460;7.150;2023-11-21T02:44:10;17.10;65.40
2929;DHT22;1474;51.460;7.150;2023-11-21T02:46:36;17.10;65.50
2929;DHT22;1474;51.460;7.150;2023-11-21T02:49:03;17.10;65.40
2929;DHT22;1474;51.460;7.150;2023-11-21T02:51:31;17.10;65.40
2929;DHT22;1474;51.460;7.150;2023-11-21T02:53:57;17.10;65.50
2929;DHT22;1474;51.460;7.150;2023-11-21T02:56:27;17.10;65.50
2929;DHT22;1474;51.460;7.150;2023-11-21T02:58:57;17.10;65.40
2929;DHT22;1474;51.460;7.150;2023-11-21T03:01:23;17.10;65.40
2929;DHT22;1474;51.460;7.150;2023-11-21T03:03:53;17.10;65.40
2929;DHT22;1474;51.460;7.150;2023-11-21T03:06:19;17.10;65.40
2929;DHT22;1474;51.460;7.150;2023-11-21T03:08:46;17.10;65.40
2929;DHT22;1474;51.460;7.150;2023-11-21T03:11:13;17.10;65.50
2929;DHT22;1474;51.460;7.150;2023-11-21T03:13:40;17.10;65.40
2929;DHT22;1474;51.460;7.150;2023-11-21T03:16:08;17.10;65.40
2929;DHT22;1474;51.460;7.150;2023-11-21T03:18:36;17.10;65.40
2929;DHT22;1474;51.460;7.150;2023-11-21T03:21:03;17.10;66.00
2929;DHT22;1474;51.460;7.150;2023-11-21T03:23:30;17.10;65.40
2929;DHT22;1474;51.460;7.150;2023-11-21T03:25:56;17.10;65.40
2929;DHT22;1474;51.460;7.150;2023-11-21T03:28:22;17.20;65.50
2929;DHT22;1474;51.460;7.150;2023-11-21T03:30:49;17.10;65.30
2929;DHT22;1474;51.460;7.150;2023-11-21T03:33:14;17.10;65.40
2929;DHT22;1474;51.460;7.150;2023-11-21T03:35:40;17.10;65.40
2929;DHT22;1474;51.460;7.150;2023-11-21T03:38:07;17.10;65.40
2929;DHT22;1474;51.460;7.150;2023-11-21T03:40:35;17.10;65.40
2929;DHT22;1474;51.460;7.150;2023-11-21T03:43:00;17.10;65.30
2929;DHT22;1474;51.460;7.150;2023-11-21T03:45:26;17.10;65.30
2929;DHT22;1474;51.460;7.150;2023-11-21T03:47:52;17.10;65.40
2929;DHT22;1474;51.460;7.150;2023-11-21T03:50:18;17.10;65.40
2929;DHT22;1474;51.460;7.150;2023-11-21T03:52:43;17.10;65.40
2929;DHT22;1474;51.460;7.150;2023-11-21T03:55:09;17.10;65.30
2929;DHT22;1474;51.460;7.150;2023-11-21T03:57:36;17.20;65.40
2929;DHT22;1474;51.460;7.150;2023-11-21T04:00:02;17.10;65.30
2929;DHT22;1474;51.460;7.150;2023-11-21T04:02:34;17.10;65.30
2929;DHT22;1474;51.460;7.150;2023-11-21T04:05:00;17.10;65.30
2929;DHT22;1474;51.460;7.150;2023-11-21T04:07:26;17.10;65.30
2929;DHT22;1474;51.460;7.150;2023-11-21T04:09:52;17.10;65.30
2929;DHT22;1474;51.460;7.150;2023-11-21T04:12:19;17.10;65.30
2929;DHT22;1474;51.460;7.150;2023-11-21T04:14:45;17.10;65.30
2929;DHT22;1474;51.460;7.150;2023-11-21T04:17:11;17.10;65.30
2929;DHT22;1474;51.460;7.150;2023-11-21T04:19:36;17.10;65.30
2929;DHT22;1474;51.460;7.150;2023-11-21T04:22:02;17.10;65.30
2929;DHT22;1474;51.460;7.150;2023-11-21T04:24:29;17.10;65.40
2929;DHT22;1474;51.460;7.150;2023-11-21T04:26:55;17.10;65.30
2929;DHT22;1474;51.460;7.150;2023-11-21T04:29:21;17.10;65.30
2929;DHT22;1474;51.460;7.150;2023-11-21T04:31:46;17.10;65.30
2929;DHT22;1474;51.460;7.150;2023-11-21T04:34:14;17.10;65.30
2929;DHT22;1474;51.460;7.150;2023-11-21T04:36:40;17.10;65.30
2929;DHT22;1474;51.460;7.150;2023-11-21T04:39:06;17.10;65.30
2929;DHT22;1474;51.460;7.150;2023-11-21T04:41:32;17.10;65.90
2929;DHT22;1474;51.460;7.150;2023-11-21T04:43:58;17.10;65.30
2929;DHT22;1474;51.460;7.150;2023-11-21T04:46:26;17.10;65.30
2929;DHT22;1474;51.460;7.150;2023-11-21T04:48:52;17.10;65.30
2929;DHT22;1474;51.460;7.150;2023-11-21T04:51:17;17.10;65.30
2929;DHT22;1474;51.460;7.150;2023-11-21T04:53:43;17.10;65.30
2929;DHT22;1474;51.460;7.150;2023-11-21T04:56:09;17.10;65.30
2929;DHT22;1474;51.460;7.150;2023-11-21T04:58:35;17.10;65.30
2929;DHT22;1474;51.460;7.150;2023-11-21T05:01:01;17.10;65.30
2929;DHT22;1474;51.460;7.150;2023-11-21T05:03:27;17.10;65.30
2929;DHT22;1474;51.460;7.150;2023-11-21T05:05:55;17.10;65.30
2929;DHT22;1474;51.460;7.150;2023-11-21T05:08:21;17.10;65.30
2929;DHT22;1474;51.460;7.150;2023-11-21T05:10:47;17.10;65.30
2929;DHT22;1474;51.460;7.150;2023-11-21T05:13:14;17.10;65.30
2929;DHT22;1474;51.460;7.150;2023-11-21T05:15:42;17.10;65.30
2929;DHT22;1474;51.460;7.150;2023-11-21T05:18:09;17.10;65.30
2929;DHT22;1474;51.460;7.150;2023-11-21T05:20:35;17.10;65.30
2929;DHT22;1474;51.460;7.150;2023-11-21T05:23:01;17.10;65.30
2929;DHT22;1474;51.460;7.150;2023-11-21T05:25:27;17.10;65.30
2929;DHT22;1474;51.460;7.150;2023-11-21T05:27:53;17.10;65.30
2929;DHT22;1474;51.460;7.150;2023-11-21T05:30:20;17.10;65.30
2929;DHT22;1474;51.460;7.150;2023-11-21T05:32:46;17.10;65.30
2929;DHT22;1474;51.460;7.150;2023-11-21T05:35:12;17.10;65.30
2929;DHT22;1474;51.460;7.150;2023-11-21T05:37:41;17.10;65.30
2929;DHT22;1474;51.460;7.150;2023-11-21T05:40:08;17.10;65.30
2929;DHT22;1474;51.460;7.150;2023-11-21T05:42:35;17.10;65.30
2929;DHT22;1474;51.460;7.150;2023-11-21T05:45:02;17.10;65.30
2929;DHT22;1474;51.460;7.150;2023-11-21T05:47:43;17.10;65.30
2929;DHT22;1474;51.460;7.150;2023-11-21T05:50:13;17.10;65.30
2929;DHT22;1474;51.460;7.150;2023-11-21T05:52:41;17.10;65.30
2929;DHT22;1474;51.460;7.150;2023-11-21T05:55:09;17.10;65.30
2929;DHT22;1474;51.460;7.150;2023-11-21T05:57:35;17.10;65.30
2929;DHT22;1474;51.460;7.150;2023-11-21T06:00:09;17.10;65.30
2929;DHT22;1474;51.460;7.150;2023-11-21T06:02:49;17.10;65.30
2929;DHT22;1474;51.460;7.150;2023-11-21T06:05:17;17.10;65.20
2929;DHT22;1474;51.460;7.150;2023-11-21T06:07:44;17.10;65.30
2929;DHT22;1474;51.460;7.150;2023-11-21T06:10:11;17.10;65.30
2929;DHT22;1474;51.460;7.150;2023-11-21T06:12:40;17.10;65.30
2929;DHT22;1474;51.460;7.150;2023-11-21T06:15:09;17.10;65.30
2929;DHT22;1474;51.460;7.150;2023-11-21T06:17:39;17.10;65.20
2929;DHT22;1474;51.460;7.150;2023-11-21T06:20:07;17.10;65.20
2929;DHT22;1474;51.460;7.150;2023-11-21T06:22:42;17.10;65.20
2929;DHT22;1474;51.460;7.150;2023-11-21T06:25:09;17.10;65.30
2929;DHT22;1474;51.460;7.150;2023-11-21T06:27:40;17.10;65.20
2929;DHT22;1474;51.460;7.150;2023-11-21T06:30:08;17.10;65.20
2929;DHT22;1474;51.460;7.150;2023-11-21T06:32:36;17.10;65.30
2929;DHT22;1474;51.460;7.150;2023-11-21T06:35:02;17.10;65.20
2929;DHT22;1474;51.460;7.150;2023-11-21T06:37:30;17.10;65.20
2929;DHT22;1474;51.460;7.150;2023-11-21T06:39:57;17.10;65.30
2929;DHT22;1474;51.460;7.150;2023-11-21T06:42:24;17.10;65.20
2929;DHT22;1474;51.460;7.150;2023-11-21T06:44:51;17.10;65.20
2929;DHT22;1474;51.460;7.150;2023-11-21T06:47:17;17.10;65.20
2929;DHT22;1474;51.460;7.150;2023-11-21T06:49:45;17.10;65.20
2929;DHT22;1474;51.460;7.150;2023-11-21T06:52:13;17.10;65.20
2929;DHT22;1474;51.460;7.150;2023-11-21T06:54:39;17.10;65.80
2929;DHT22;1474;51.460;7.150;2023-11-21T06:57:05;17.10;65.20
2929;DHT22;1474;51.460;7.150;2023-11-21T06:59:31;17.10;65.20
2929;DHT22;1474;51.460;7.150;2023-11-21T07:01:57;17.10;65.20
2929;DHT22;1474;51.460;7.150;2023-11-21T07:04:23;17.10;65.20
2929;DHT22;1474;51.460;7.150;2023-11-21T07:06:51;17.10;65.20
2929;DHT22;1474;51.460;7.150;2023-11-21T07:09:18;17.10;65.20
2929;DHT22;1474;51.460;7.150;2023-11-21T07:11:47;17.10;65.20
2929;DHT22;1474;51.460;7.150;2023-11-21T07:14:14;17.10;65.30
2929;DHT22;1474;51.460;7.150;2023-11-21T07:16:41;17.10;65.30
2929;DHT22;1474;51.460;7.150;2023-11-21T07:19:07;17.10;65.20
2929;DHT22;1474;51.460;7.150;2023-11-21T07:21:34;17.10;65.20
2929;DHT22;1474;51.460;7.150;2023-11-21T07:24:02;17.10;65.20
2929;DHT22;1474;51.460;7.150;2023-11-21T07:26:29;17.10;65.20
2929;DHT22;1474;51.460;7.150;2023-11-21T07:28:55;17.10;65.20
2929;DHT22;1474;51.460;7.150;2023-11-21T07:31:22;17.10;65.20
2929;DHT22;1474;51.460;7.150;2023-11-21T07:33:49;17.10;65.20
2929;DHT22;1474;51.460;7.150;2023-11-21T07:36:16;17.10;65.20
2929;DHT22;1474;51.460;7.150;2023-11-21T07:38:49;17.10;65.20
2929;DHT22;1474;51.460;7.150;2023-11-21T07:41:16;17.10;65.20
2929;DHT22;1474;51.460;7.150;2023-11-21T07:43:46;17.10;65.10
2929;DHT22;1474;51.460;7.150;2023-11-21T07:46:13;17.10;65.20
2929;DHT22;1474;51.460;7.150;2023-11-21T07:48:40;17.10;65.10
2929;DHT22;1474;51.460;7.150;2023-11-21T07:51:07;17.10;65.10
2929;DHT22;1474;51.460;7.150;2023-11-21T07:53:34;17.10;65.20
2929;DHT22;1474;51.460;7.150;2023-11-21T07:56:08;17.10;65.10
2929;DHT22;1474;51.460;7.150;2023-11-21T07:58:35;17.10;65.10
2929;DHT22;1474;51.460;7.150;2023-11-21T08:01:04;17.10;65.10
2929;DHT22;1474;51.460;7.150;2023-11-21T08:03:31;17.10;65.10
2929;DHT22;1474;51.460;7.150;2023-11-21T08:05:57;17.10;65.10
2929;DHT22;1474;51.460;7.150;2023-11-21T08:08:24;17.10;65.10
2929;DHT22;1474;51.460;7.150;2023-11-21T08:10:50;17.10;65.10
2929;DHT22;1474;51.460;7.150;2023-11-21T08:13:26;17.20;65.10
2929;DHT22;1474;51.460;7.150;2023-11-21T08:15:57;17.10;65.00
2929;DHT22;1474;51.460;7.150;2023-11-21T08:18:30;17.10;65.00
2929;DHT22;1474;51.460;7.150;2023-11-21T08:20:57;17.10;65.10
2929;DHT22;1474;51.460;7.150;2023-11-21T08:23:23;17.20;65.10
2929;DHT22;1474;51.460;7.150;2023-11-21T08:25:52;17.10;65.10
2929;DHT22;1474;51.460;7.150;2023-11-21T08:28:19;17.10;65.10
2929;DHT22;1474;51.460;7.150;2023-11-21T08:30:51;17.10;65.10
2929;DHT22;1474;51.460;7.150;2023-11-21T08:33:18;17.10;65.10
2929;DHT22;1474;51.460;7.150;2023-11-21T08:35:44;17.10;65.10
2929;DHT22;1474;51.460;7.150;2023-11-21T08:38:11;17.10;65.10
2929;DHT22;1474;51.460;7.150;2023-11-21T08:40:37;17.10;65.10
2929;DHT22;1474;51.460;7.150;2023-11-21T08:43:04;17.10;65.10
2929;DHT22;1474;51.460;7.150;2023-11-21T08:45:33;17.10;65.10
2929;DHT22;1474;51.460;7.150;2023-11-21T08:48:00;17.10;65.10
2929;DHT22;1474;51.460;7.150;2023-11-21T08:50:26;17.10;65.60
2929;DHT22;1474;51.460;7.150;2023-11-21T08:52:52;17.10;65.10
2929;DHT22;1474;51.460;7.150;2023-11-21T08:55:17;17.10;65.20
2929;DHT22;1474;51.460;7.150;2023-11-21T08:57:45;17.10;65.10
2929;DHT22;1474;51.460;7.150;2023-11-21T09:00:14;17.10;65.10
2929;DHT22;1474;51.460;7.150;2023-11-21T09:02:42;17.10;65.10
2929;DHT22;1474;51.460;7.150;2023-11-21T09:05:10;17.10;65.10
2929;DHT22;1474;51.460;7.150;2023-11-21T09:07:37;17.10;65.10
2929;DHT22;1474;51.460;7.150;2023-11-21T09:10:04;17.10;65.10
2929;DHT22;1474;51.460;7.150;2023-11-21T09:12:33;17.10;65.10
2929;DHT22;1474;51.460;7.150;2023-11-21T09:15:04;17.10;65.10
2929;DHT22;1474;51.460;7.150;2023-11-21T09:17:32;17.10;65.30
2929;DHT22;1474;51.460;7.150;2023-11-21T09:19:59;17.20;65.80
2929;DHT22;1474;51.460;7.150;2023-11-21T09:22:25;17.20;66.30
2929;DHT22;1474;51.460;7.150;2023-11-21T09:24:51;17.20;66.00
2929;DHT22;1474;51.460;7.150;2023-11-21T09:27:17;17.20;66.20
2929;DHT22;1474;51.460;7.150;2023-11-21T09:29:44;17.30;66.40
2929;DHT22;1474;51.460;7.150;2023-11-21T09:32:09;17.30;66.50
2929;DHT22;1474;51.460;7.150;2023-11-21T09:34:38;17.30;66.60
2929;DHT22;1474;51.460;7.150;2023-11-21T09:37:07;17.30;66.80
2929;DHT22;1474;51.460;7.150;2023-11-21T09:39:34;17.30;66.70
2929;DHT22;1474;51.460;7.150;2023-11-21T09:42:12;17.30;66.70
2929;DHT22;1474;51.460;7.150;2023-11-21T09:45:05;17.40;66.80
2929;DHT22;1474;51.460;7.150;2023-11-21T09:47:38;17.40;66.90
2929;DHT22;1474;51.460;7.150;2023-11-21T09:50:05;17.40;66.80
2929;DHT22;1474;51.460;7.150;2023-11-21T09:55:36;17.40;66.80
2929;DHT22;1474;51.460;7.150;2023-11-21T09:58:04;17.40;66.80
2929;DHT22;1474;51.460;7.150;2023-11-21T10:00:33;17.50;66.90
2929;DHT22;1474;51.460;7.150;2023-11-21T10:03:00;17.50;67.40
2929;DHT22;1474;51.460;7.150;2023-11-21T10:05:25;17.50;66.90
2929;DHT22;1474;51.460;7.150;2023-11-21T10:07:52;17.50;66.80
2929;DHT22;1474;51.460;7.150;2023-11-21T10:10:20;17.50;66.90
2929;DHT22;1474;51.460;7.150;2023-11-21T10:12:51;17.50;66.90
2929;DHT22;1474;51.460;7.150;2023-11-21T10:15:23;17.60;66.90
2929;DHT22;1474;51.460;7.150;2023-11-21T10:17:53;17.60;66.80
2929;DHT22;1474;51.460;7.150;2023-11-21T10:20:20;17.60;66.90
2929;DHT22;1474;51.460;7.150;2023-11-21T10:22:47;17.60;66.80
2929;DHT22;1474;51.460;7.150;2023-11-21T10:25:13;17.70;66.80
2929;DHT22;1474;51.460;7.150;2023-11-21T10:27:41;17.60;66.70
2929;DHT22;1474;51.460;7.150;2023-11-21T10:30:07;17.70;66.60
2929;DHT22;1474;51.460;7.150;2023-11-21T10:32:38;17.70;66.60
2929;DHT22;1474;51.460;7.150;2023-11-21T10:35:06;17.60;66.30
2929;DHT22;1474;51.460;7.150;2023-11-21T10:37:39;17.60;66.30
2929;DHT22;1474;51.460;7.150;2023-11-21T10:40:09;17.70;66.20
2929;DHT22;1474;51.460;7.150;2023-11-21T10:42:38;17.60;66.00
2929;DHT22;1474;51.460;7.150;2023-11-21T10:45:05;17.60;66.00
2929;DHT22;1474;51.460;7.150;2023-11-21T10:47:39;17.60;66.00
2929;DHT22;1474;51.460;7.150;2023-11-21T10:50:07;17.60;65.90
2929;DHT22;1474;51.460;7.150;2023-11-21T10:52:45;17.60;65.90
2929;DHT22;1474;51.460;7.150;2023-11-21T10:55:20;17.60;65.90
2929;DHT22;1474;51.460;7.150;2023-11-21T10:57:52;17.60;65.90
2929;DHT22;1474;51.460;7.150;2023-11-21T11:00:20;17.60;65.80
2929;DHT22;1474;51.460;7.150;2023-11-21T11:02:51;17.60;66.30
2929;DHT22;1474;51.460;7.150;2023-11-21T11:05:20;17.60;65.70
2929;DHT22;1474;51.460;7.150;2023-11-21T11:07:50;17.70;65.70
2929;DHT22;1474;51.460;7.150;2023-11-21T11:10:29;17.60;65.60
2929;DHT22;1474;51.460;7.150;2023-11-21T11:12:56;17.60;65.60
2929;DHT22;1474;51.460;7.150;2023-11-21T11:15:25;17.60;66.20
2929;DHT22;1474;51.460;7.150;2023-11-21T11:17:52;17.60;65.70
2929;DHT22;1474;51.460;7.150;2023-11-21T11:20:27;17.60;65.70
2929;DHT22;1474;51.460;7.150;2023-11-21T11:28:57;17.50;65.70
2929;DHT22;1474;51.460;7.150;2023-11-21T11:34:54;17.50;65.70
2929;DHT22;1474;51.460;7.150;2023-11-21T11:37:29;17.50;65.70
2929;DHT22;1474;51.460;7.150;2023-11-21T11:39:55;17.50;65.70
2929;DHT22;1474;51.460;7.150;2023-11-21T11:42:22;17.50;65.70
2929;DHT22;1474;51.460;7.150;2023-11-21T11:44:50;17.50;65.70
2929;DHT22;1474;51.460;7.150;2023-11-21T11:47:26;17.50;65.70
2929;DHT22;1474;51.460;7.150;2023-11-21T11:50:07;17.50;65.70
2929;DHT22;1474;51.460;7.150;2023-11-21T11:52:49;17.50;65.70
2929;DHT22;1474;51.460;7.150;2023-11-21T11:55:18;17.50;65.70
2929;DHT22;1474;51.460;7.150;2023-11-21T11:57:53;17.50;65.70
2929;DHT22;1474;51.460;7.150;2023-11-21T12:02:56;17.50;65.70
2929;DHT22;1474;51.460;7.150;2023-11-21T12:05:31;17.50;65.70
2929;DHT22;1474;51.460;7.150;2023-11-21T12:08:05;17.50;65.80
2929;DHT22;1474;51.460;7.150;2023-11-21T12:10:37;17.50;65.80
2929;DHT22;1474;51.460;7.150;2023-11-21T12:13:09;17.50;65.80
2929;DHT22;1474;51.460;7.150;2023-11-21T12:15:37;17.40;65.80
2929;DHT22;1474;51.460;7.150;2023-11-21T12:18:04;17.40;65.80
2929;DHT22;1474;51.460;7.150;2023-11-21T12:20:31;17.40;65.80
2929;DHT22;1474;51.460;7.150;2023-11-21T12:23:04;17.40;65.80
2929;DHT22;1474;51.460;7.150;2023-11-21T12:25:31;17.40;65.80
2929;DHT22;1474;51.460;7.150;2023-11-21T12:27:59;17.40;65.80
2929;DHT22;1474;51.460;7.150;2023-11-21T12:30:28;17.40;65.80
2929;DHT22;1474;51.460;7.150;2023-11-21T12:32:57;17.40;65.80
2929;DHT22;1474;51.460;7.150;2023-11-21T12:35:25;17.40;65.90
2929;DHT22;1474;51.460;7.150;2023-11-21T12:37:56;17.40;65.80
2929;DHT22;1474;51.460;7.150;2023-11-21T12:40:22;17.40;65.90
2929;DHT22;1474;51.460;7.150;2023-11-21T12:42:51;17.40;65.80
2929;DHT22;1474;51.460;7.150;2023-11-21T12:45:22;17.40;65.80
2929;DHT22;1474;51.460;7.150;2023-11-21T12:47:53;17.40;65.90
2929;DHT22;1474;51.460;7.150;2023-11-21T12:50:23;17.40;65.90
2929;DHT22;1474;51.460;7.150;2023-11-21T12:52:54;17.40;65.90
2929;DHT22;1474;51.460;7.150;2023-11-21T12:55:24;17.40;65.90
2929;DHT22;1474;51.460;7.150;2023-11-21T12:57:54;17.40;65.90
2929;DHT22;1474;51.460;7.150;2023-11-21T13:00:45;17.40;66.00
2929;DHT22;1474;51.460;7.150;2023-11-21T13:03:14;17.40;66.00
2929;DHT22;1474;51.460;7.150;2023-11-21T13:05:51;17.40;66.00
2929;DHT22;1474;51.460;7.150;2023-11-21T13:08:23;17.40;66.00
2929;DHT22;1474;51.460;7.150;2023-11-21T13:10:56;17.40;66.00
2929;DHT22;1474;51.460;7.150;2023-11-21T13:13:23;17.30;65.90
2929;DHT22;1474;51.460;7.150;2023-11-21T13:15:51;17.40;66.00
2929;DHT22;1474;51.460;7.150;2023-11-21T13:18:30;17.40;66.00
2929;DHT22;1474;51.460;7.150;2023-11-21T13:20:59;17.30;65.90
2929;DHT22;1474;51.460;7.150;2023-11-21T13:23:28;17.30;66.00
2929;DHT22;1474;51.460;7.150;2023-11-21T13:25:55;17.30;66.00
2929;DHT22;1474;51.460;7.150;2023-11-21T13:28:21;17.30;66.00
2929;DHT22;1474;51.460;7.150;2023-11-21T13:30:48;17.30;65.90
2929;DHT22;1474;51.460;7.150;2023-11-21T13:33:17;17.30;66.00
2929;DHT22;1474;51.460;7.150;2023-11-21T13:35:47;17.30;65.90
2929;DHT22;1474;51.460;7.150;2023-11-21T13:38:16;17.30;66.00
2929;DHT22;1474;51.460;7.150;2023-11-21T13:40:50;17.30;66.00
2929;DHT22;1474;51.460;7.150;2023-11-21T13:43:20;17.30;66.00
2929;DHT22;1474;51.460;7.150;2023-11-21T13:45:50;17.30;66.00
2929;DHT22;1474;51.460;7.150;2023-11-21T13:48:24;17.30;66.00
2929;DHT22;1474;51.460;7.150;2023-11-21T13:51:22;17.30;66.00
2929;DHT22;1474;51.460;7.150;2023-11-21T13:53:57;17.30;66.00
2929;DHT22;1474;51.460;7.150;2023-11-21T13:56:22;17.30;66.00
2929;DHT22;1474;51.460;7.150;2023-11-21T13:58:53;17.30;66.00
2929;DHT22;1474;51.460;7.150;2023-11-21T14:01:20;17.30;66.10
2929;DHT22;1474;51.460;7.150;2023-11-21T14:04:00;17.30;66.00
2929;DHT22;1474;51.460;7.150;2023-11-21T14:06:43;17.40;66.10
2929;DHT22;1474;51.460;7.150;2023-11-21T14:09:23;17.50;66.10
2929;DHT22;1474;51.460;7.150;2023-11-21T14:11:58;17.50;66.00
2929;DHT22;1474;51.460;7.150;2023-11-21T14:14:27;17.60;66.20
2929;DHT22;1474;51.460;7.150;2023-11-21T14:16:56;17.60;66.00
2929;DHT22;1474;51.460;7.150;2023-11-21T14:19:23;17.70;66.00
2929;DHT22;1474;51.460;7.150;2023-11-21T14:21:55;17.80;66.00
2929;DHT22;1474;51.460;7.150;2023-11-21T14:24:21;17.90;66.50
2929;DHT22;1474;51.460;7.150;2023-11-21T14:26:49;17.90;65.80
2929;DHT22;1474;51.460;7.150;2023-11-21T14:29:18;18.00;65.70
2929;DHT22;1474;51.460;7.150;2023-11-21T14:31:49;18.10;65.60
2929;DHT22;1474;51.460;7.150;2023-11-21T14:34:22;18.10;65.40
2929;DHT22;1474;51.460;7.150;2023-11-21T14:36:48;18.20;65.40
2929;DHT22;1474;51.460;7.150;2023-11-21T14:39:14;18.20;65.40
2929;DHT22;1474;51.460;7.150;2023-11-21T14:41:49;18.20;65.30
2929;DHT22;1474;51.460;7.150;2023-11-21T14:44:16;18.30;65.30
2929;DHT22;1474;51.460;7.150;2023-11-21T14:46:42;18.30;65.30
2929;DHT22;1474;51.460;7.150;2023-11-21T14:49:12;18.40;65.20
2929;DHT22;1474;51.460;7.150;2023-11-21T14:51:52;18.50;65.00
2929;DHT22;1474;51.460;7.150;2023-11-21T14:54:30;18.50;64.90
2929;DHT22;1474;51.460;7.150;2023-11-21T14:57:22;18.60;64.80
2929;DHT22;1474;51.460;7.150;2023-11-21T14:59:49;18.60;64.60
2929;DHT22;1474;51.460;7.150;2023-11-21T15:02:23;18.60;64.60
2929;DHT22;1474;51.460;7.150;2023-11-21T15:05:09;18.70;64.50
2929;DHT22;1474;51.460;7.150;2023-11-21T15:07:41;18.70;64.60
2929;DHT22;1474;51.460;7.150;2023-11-21T15:10:08;18.80;64.60
2929;DHT22;1474;51.460;7.150;2023-11-21T15:12:40;18.80;64.30
2929;DHT22;1474;51.460;7.150;2023-11-21T15:15:08;18.80;65.00
2929;DHT22;1474;51.460;7.150;2023-11-21T15:17:36;18.90;64.20
2929;DHT22;1474;51.460;7.150;2023-11-21T15:20:03;18.90;64.10
2929;DHT22;1474;51.460;7.150;2023-11-21T15:22:32;19.00;64.10
2929;DHT22;1474;51.460;7.150;2023-11-21T15:24:58;19.00;63.90
2929;DHT22;1474;51.460;7.150;2023-11-21T15:27:25;19.10;63.90
2929;DHT22;1474;51.460;7.150;2023-11-21T15:29:55;19.10;63.80
2929;DHT22;1474;51.460;7.150;2023-11-21T15:32:21;19.20;63.90
2929;DHT22;1474;51.460;7.150;2023-11-21T15:34:47;19.20;63.80
2929;DHT22;1474;51.460;7.150;2023-11-21T15:37:13;19.20;63.70
2929;DHT22;1474;51.460;7.150;2023-11-21T15:39:48;19.30;63.80
2929;DHT22;1474;51.460;7.150;2023-11-21T15:42:14;19.30;63.70
2929;DHT22;1474;51.460;7.150;2023-11-21T15:44:39;19.30;63.50
2929;DHT22;1474;51.460;7.150;2023-11-21T15:47:08;19.30;63.50
2929;DHT22;1474;51.460;7.150;2023-11-21T15:49:34;19.40;63.60
2929;DHT22;1474;51.460;7.150;2023-11-21T15:52:02;19.50;63.70
2929;DHT22;1474;51.460;7.150;2023-11-21T15:54:31;19.50;63.60
2929;DHT22;1474;51.460;7.150;2023-11-21T15:57:03;19.50;63.50
2929;DHT22;1474;51.460;7.150;2023-11-21T15:59:29;19.50;63.50
2929;DHT22;1474;51.460;7.150;2023-11-21T16:01:59;19.50;63.70
2929;DHT22;1474;51.460;7.150;2023-11-21T16:04:26;19.60;63.30
2929;DHT22;1474;51.460;7.150;2023-11-21T16:06:57;19.60;63.10
2929;DHT22;1474;51.460;7.150;2023-11-21T16:09:24;19.70;63.10
2929;DHT22;1474;51.460;7.150;2023-11-21T16:12:22;19.70;63.10
2929;DHT22;1474;51.460;7.150;2023-11-21T16:14:48;19.80;63.10
2929;DHT22;1474;51.460;7.150;2023-11-21T16:17:15;19.80;63.00
2929;DHT22;1474;51.460;7.150;2023-11-21T16:19:43;19.80;63.00
2929;DHT22;1474;51.460;7.150;2023-11-21T16:22:09;19.80;63.00
2929;DHT22;1474;51.460;7.150;2023-11-21T16:24:36;19.80;62.90
2929;DHT22;1474;51.460;7.150;2023-11-21T16:27:03;19.80;62.90